BAW39B EGLL-EBBR
Flight info
| Callsign | BAW39B |
|---|---|
| Flight time | 0h 54m |
| Altitude | 21000 |
| Route | DET Q70 KOK |
| Aircraft | A319/M-SDE3FGIJ1KRWXY/LB1 |
Departure
| Time | 2026-04-30 19:10 |
|---|---|
| Airport | London Heathrow Airport (EGLL) |
Arrival
| Time | 2026-04-30 20:05 |
|---|---|
| Airport | Brussels Airport (EBBR) |
| Time | Latitude | Longitude | Altitude | Speed | Heading |
|---|---|---|---|---|---|
| 2026-04-30 18:39 | 51.47271 | -0.48588 | 86 ft | 0 kts | 269° |
| 2026-04-30 19:03 | 51.47271 | -0.48544 | 90 ft | 4 kts | 269° |
| 2026-04-30 19:03 | 51.47281 | -0.48478 | 91 ft | 4 kts | 201° |
| 2026-04-30 19:04 | 51.47310 | -0.48473 | 86 ft | 0 kts | 179° |
| 2026-04-30 19:07 | 51.47306 | -0.48473 | 90 ft | 3 kts | 179° |
| 2026-04-30 19:07 | 51.47265 | -0.48473 | 86 ft | 9 kts | 180° |
| 2026-04-30 19:08 | 51.47098 | -0.48472 | 86 ft | 15 kts | 179° |
| 2026-04-30 19:08 | 51.46881 | -0.48469 | 88 ft | 15 kts | 179° |
| 2026-04-30 19:08 | 51.46770 | -0.48469 | 86 ft | 17 kts | 180° |
| 2026-04-30 19:09 | 51.46535 | -0.48467 | 87 ft | 15 kts | 179° |
| 2026-04-30 19:09 | 51.46479 | -0.48427 | 89 ft | 10 kts | 98° |
| 2026-04-30 19:09 | 51.46480 | -0.48239 | 89 ft | 35 kts | 89° |
| 2026-04-30 19:10 | 51.46487 | -0.46035 | 127 ft | 149 kts | 89° |
| 2026-04-30 19:10 | 51.46513 | -0.42702 | 1315 ft | 154 kts | 90° |
| 2026-04-30 19:11 | 51.46153 | -0.40984 | 1592 ft | 180 kts | 128° |
| 2026-04-30 19:11 | 51.44509 | -0.37317 | 2595 ft | 226 kts | 121° |
| 2026-04-30 19:11 | 51.43734 | -0.35059 | 3480 ft | 236 kts | 116° |
| 2026-04-30 19:12 | 51.43318 | -0.32452 | 4442 ft | 246 kts | 105° |
| 2026-04-30 19:12 | 51.42950 | -0.29708 | 5327 ft | 258 kts | 106° |
| 2026-04-30 19:12 | 51.42556 | -0.26870 | 6245 ft | 264 kts | 105° |
| 2026-04-30 19:13 | 51.41763 | -0.21027 | 8155 ft | 272 kts | 105° |
| 2026-04-30 19:13 | 51.40946 | -0.15010 | 10082 ft | 279 kts | 105° |
| 2026-04-30 19:13 | 51.40518 | -0.11920 | 10614 ft | 298 kts | 105° |
| 2026-04-30 19:14 | 51.40056 | -0.08601 | 11183 ft | 311 kts | 105° |
| 2026-04-30 19:14 | 51.39581 | -0.05188 | 11990 ft | 316 kts | 105° |
| 2026-04-30 19:14 | 51.39105 | -0.01739 | 12845 ft | 318 kts | 105° |
| 2026-04-30 19:14 | 51.38627 | 0.01747 | 13681 ft | 323 kts | 105° |
| 2026-04-30 19:15 | 51.38135 | 0.05275 | 14447 ft | 326 kts | 105° |
| 2026-04-30 19:15 | 51.37134 | 0.12426 | 15846 ft | 333 kts | 105° |
| 2026-04-30 19:15 | 51.36619 | 0.16066 | 16542 ft | 337 kts | 105° |
| 2026-04-30 19:16 | 51.36100 | 0.19742 | 17240 ft | 341 kts | 105° |
| 2026-04-30 19:16 | 51.35575 | 0.23464 | 17941 ft | 345 kts | 105° |
| 2026-04-30 19:16 | 51.34509 | 0.31027 | 19215 ft | 352 kts | 105° |
| 2026-04-30 19:17 | 51.33967 | 0.34856 | 19855 ft | 354 kts | 105° |
| 2026-04-30 19:17 | 51.32900 | 0.42347 | 20472 ft | 331 kts | 105° |
| 2026-04-30 19:17 | 51.32395 | 0.45892 | 20681 ft | 326 kts | 106° |
| 2026-04-30 19:18 | 51.31545 | 0.51789 | 21073 ft | 330 kts | 105° |
| 2026-04-30 19:18 | 51.30849 | 0.56598 | 21174 ft | 331 kts | 105° |
| 2026-04-30 19:18 | 51.30402 | 0.60173 | 21175 ft | 327 kts | 99° |
| 2026-04-30 19:19 | 51.30257 | 0.63805 | 21179 ft | 327 kts | 96° |
| 2026-04-30 19:19 | 51.30132 | 0.67430 | 21185 ft | 326 kts | 96° |
| 2026-04-30 19:19 | 51.29874 | 0.74639 | 21184 ft | 326 kts | 97° |
| 2026-04-30 19:20 | 51.29741 | 0.78254 | 21189 ft | 326 kts | 97° |
| 2026-04-30 19:20 | 51.29607 | 0.81878 | 21191 ft | 326 kts | 97° |
| 2026-04-30 19:20 | 51.29339 | 0.89129 | 21196 ft | 327 kts | 97° |
| 2026-04-30 19:21 | 51.29203 | 0.92756 | 21197 ft | 327 kts | 97° |
| 2026-04-30 19:21 | 51.28923 | 1.00003 | 21193 ft | 327 kts | 96° |
| 2026-04-30 19:22 | 51.28645 | 1.07223 | 21199 ft | 327 kts | 96° |
| 2026-04-30 19:22 | 51.28215 | 1.18141 | 21210 ft | 327 kts | 96° |
| 2026-04-30 19:23 | 51.27770 | 1.28970 | 21216 ft | 327 kts | 96° |
| 2026-04-30 19:24 | 51.27146 | 1.36114 | 21216 ft | 325 kts | 106° |
| 2026-04-30 19:24 | 51.26601 | 1.39612 | 21214 ft | 324 kts | 106° |
| 2026-04-30 19:24 | 51.25510 | 1.46603 | 21207 ft | 324 kts | 106° |
| 2026-04-30 19:25 | 51.23873 | 1.57101 | 21210 ft | 325 kts | 106° |
| 2026-04-30 19:26 | 51.22772 | 1.64097 | 21212 ft | 325 kts | 106° |
| 2026-04-30 19:26 | 51.21661 | 1.71073 | 21211 ft | 325 kts | 106° |
| 2026-04-30 19:26 | 51.21103 | 1.74566 | 21212 ft | 324 kts | 106° |
| 2026-04-30 19:27 | 51.19993 | 1.81529 | 21210 ft | 324 kts | 106° |
| 2026-04-30 19:27 | 51.18878 | 1.88511 | 21200 ft | 325 kts | 106° |
| 2026-04-30 19:28 | 51.18322 | 1.91989 | 21198 ft | 324 kts | 106° |
| 2026-04-30 19:28 | 51.17203 | 1.98963 | 21203 ft | 325 kts | 106° |
| 2026-04-30 19:29 | 51.16076 | 2.05917 | 21206 ft | 324 kts | 106° |
| 2026-04-30 19:29 | 51.15511 | 2.09386 | 21211 ft | 324 kts | 106° |
| 2026-04-30 19:30 | 51.13809 | 2.19797 | 21213 ft | 324 kts | 106° |
| 2026-04-30 19:30 | 51.12679 | 2.26722 | 21222 ft | 323 kts | 106° |
| 2026-04-30 19:31 | 51.11544 | 2.33641 | 21216 ft | 323 kts | 106° |
| 2026-04-30 19:31 | 51.10974 | 2.37099 | 21209 ft | 323 kts | 106° |
| 2026-04-30 19:31 | 51.09830 | 2.44011 | 21210 ft | 324 kts | 106° |
| 2026-04-30 19:32 | 51.09255 | 2.47474 | 21215 ft | 324 kts | 106° |
| 2026-04-30 19:32 | 51.08687 | 2.50891 | 21216 ft | 323 kts | 106° |
| 2026-04-30 19:32 | 51.08112 | 2.54347 | 21216 ft | 323 kts | 106° |
| 2026-04-30 19:32 | 51.07527 | 2.57848 | 21143 ft | 325 kts | 106° |
| 2026-04-30 19:33 | 51.06946 | 2.61326 | 20884 ft | 325 kts | 106° |
| 2026-04-30 19:33 | 51.06366 | 2.64775 | 20636 ft | 324 kts | 107° |
| 2026-04-30 19:33 | 51.05782 | 2.68233 | 20391 ft | 324 kts | 106° |
| 2026-04-30 19:33 | 51.05202 | 2.71685 | 20145 ft | 323 kts | 106° |
| 2026-04-30 19:34 | 51.04623 | 2.75125 | 19902 ft | 322 kts | 106° |
| 2026-04-30 19:34 | 51.04045 | 2.78553 | 19662 ft | 321 kts | 107° |
| 2026-04-30 19:34 | 51.02889 | 2.85402 | 19196 ft | 319 kts | 107° |
| 2026-04-30 19:35 | 51.02314 | 2.88780 | 18969 ft | 314 kts | 107° |
| 2026-04-30 19:35 | 51.01746 | 2.92105 | 18627 ft | 310 kts | 107° |
| 2026-04-30 19:35 | 51.01183 | 2.95398 | 18236 ft | 308 kts | 107° |
| 2026-04-30 19:35 | 51.00623 | 2.98663 | 17865 ft | 305 kts | 107° |
| 2026-04-30 19:36 | 51.00067 | 3.01898 | 17503 ft | 302 kts | 106° |
| 2026-04-30 19:36 | 50.99514 | 3.05107 | 17149 ft | 300 kts | 107° |
| 2026-04-30 19:36 | 50.98432 | 3.11405 | 16452 ft | 295 kts | 107° |
| 2026-04-30 19:37 | 50.98069 | 3.13510 | 16219 ft | 293 kts | 107° |
| 2026-04-30 19:37 | 50.97532 | 3.16620 | 15874 ft | 291 kts | 107° |
| 2026-04-30 19:37 | 50.97000 | 3.19712 | 15532 ft | 289 kts | 107° |
| 2026-04-30 19:37 | 50.96295 | 3.23782 | 15086 ft | 287 kts | 107° |
| 2026-04-30 19:38 | 50.95938 | 3.25840 | 14861 ft | 286 kts | 107° |
| 2026-04-30 19:38 | 50.95408 | 3.28876 | 14526 ft | 286 kts | 107° |
| 2026-04-30 19:38 | 50.94880 | 3.31902 | 14186 ft | 284 kts | 107° |
| 2026-04-30 19:38 | 50.94355 | 3.34920 | 13830 ft | 283 kts | 107° |
| 2026-04-30 19:39 | 50.93833 | 3.37915 | 13481 ft | 280 kts | 107° |
| 2026-04-30 19:39 | 50.93314 | 3.40882 | 13153 ft | 279 kts | 107° |
| 2026-04-30 19:39 | 50.92795 | 3.43839 | 12826 ft | 278 kts | 107° |
| 2026-04-30 19:39 | 50.92275 | 3.46783 | 12491 ft | 277 kts | 107° |
| 2026-04-30 19:40 | 50.91764 | 3.49678 | 12036 ft | 279 kts | 107° |
| 2026-04-30 19:40 | 50.91230 | 3.52694 | 11585 ft | 282 kts | 107° |
| 2026-04-30 19:40 | 50.90714 | 3.55621 | 11235 ft | 278 kts | 107° |
| 2026-04-30 19:40 | 50.90193 | 3.58570 | 10901 ft | 277 kts | 107° |
| 2026-04-30 19:41 | 50.89676 | 3.61500 | 10566 ft | 275 kts | 107° |
| 2026-04-30 19:41 | 50.89160 | 3.64403 | 10237 ft | 273 kts | 108° |
| 2026-04-30 19:41 | 50.88643 | 3.67282 | 9887 ft | 270 kts | 107° |
| 2026-04-30 19:41 | 50.88136 | 3.70142 | 9554 ft | 268 kts | 107° |
| 2026-04-30 19:42 | 50.87635 | 3.72972 | 9232 ft | 266 kts | 107° |
| 2026-04-30 19:42 | 50.87133 | 3.75779 | 8910 ft | 264 kts | 107° |
| 2026-04-30 19:42 | 50.86635 | 3.78566 | 8595 ft | 262 kts | 107° |
| 2026-04-30 19:42 | 50.86146 | 3.81312 | 8285 ft | 258 kts | 107° |
| 2026-04-30 19:43 | 50.85659 | 3.84031 | 7967 ft | 256 kts | 107° |
| 2026-04-30 19:43 | 50.85171 | 3.86735 | 7657 ft | 256 kts | 107° |
| 2026-04-30 19:43 | 50.84686 | 3.89424 | 7343 ft | 253 kts | 108° |
| 2026-04-30 19:44 | 50.83724 | 3.94731 | 6737 ft | 249 kts | 107° |
| 2026-04-30 19:44 | 50.83250 | 3.97343 | 6407 ft | 246 kts | 107° |
| 2026-04-30 19:44 | 50.82781 | 3.99938 | 6108 ft | 244 kts | 108° |
| 2026-04-30 19:44 | 50.82326 | 4.02468 | 5811 ft | 232 kts | 108° |
| 2026-04-30 19:45 | 50.81901 | 4.04843 | 5530 ft | 218 kts | 108° |
| 2026-04-30 19:45 | 50.81497 | 4.07074 | 5268 ft | 205 kts | 109° |
| 2026-04-30 19:45 | 50.81108 | 4.09184 | 5022 ft | 196 kts | 109° |
| 2026-04-30 19:45 | 50.80737 | 4.11235 | 4762 ft | 193 kts | 108° |
| 2026-04-30 19:46 | 50.80690 | 4.13365 | 4508 ft | 199 kts | 85° |
| 2026-04-30 19:46 | 50.81172 | 4.15436 | 4245 ft | 202 kts | 71° |
| 2026-04-30 19:46 | 50.81760 | 4.17438 | 3979 ft | 199 kts | 72° |
| 2026-04-30 19:46 | 50.82333 | 4.19417 | 3717 ft | 197 kts | 72° |
| 2026-04-30 19:47 | 50.82898 | 4.21387 | 3452 ft | 196 kts | 74° |
| 2026-04-30 19:47 | 50.83270 | 4.22684 | 3282 ft | 192 kts | 72° |
| 2026-04-30 19:47 | 50.83967 | 4.25084 | 3065 ft | 166 kts | 73° |
| 2026-04-30 19:47 | 50.84435 | 4.26687 | 3010 ft | 155 kts | 73° |
| 2026-04-30 19:48 | 50.84876 | 4.28216 | 3020 ft | 152 kts | 74° |
| 2026-04-30 19:48 | 50.85317 | 4.29729 | 3010 ft | 151 kts | 73° |
| 2026-04-30 19:48 | 50.85755 | 4.31246 | 3010 ft | 152 kts | 74° |
| 2026-04-30 19:48 | 50.86199 | 4.32797 | 3013 ft | 164 kts | 73° |
| 2026-04-30 19:49 | 50.86696 | 4.34558 | 3008 ft | 187 kts | 72° |
| 2026-04-30 19:49 | 50.87774 | 4.38297 | 3015 ft | 188 kts | 72° |
| 2026-04-30 19:49 | 50.88321 | 4.40180 | 2992 ft | 188 kts | 72° |
| 2026-04-30 19:50 | 50.88878 | 4.42098 | 2993 ft | 191 kts | 71° |
| 2026-04-30 19:50 | 50.89431 | 4.44000 | 3008 ft | 190 kts | 72° |
| 2026-04-30 19:50 | 50.89969 | 4.45851 | 3140 ft | 186 kts | 73° |
| 2026-04-30 19:50 | 50.90687 | 4.47664 | 3395 ft | 204 kts | 46° |
| 2026-04-30 19:51 | 50.92058 | 4.48432 | 3657 ft | 224 kts | 8° |
| 2026-04-30 19:51 | 50.93625 | 4.48580 | 3899 ft | 225 kts | 13° |
| 2026-04-30 19:51 | 50.95169 | 4.48994 | 3993 ft | 225 kts | 16° |
| 2026-04-30 19:51 | 50.96705 | 4.49447 | 4005 ft | 223 kts | 17° |
| 2026-04-30 19:52 | 50.98262 | 4.49600 | 4010 ft | 231 kts | 352° |
| 2026-04-30 19:52 | 50.99701 | 4.48452 | 4013 ft | 235 kts | 315° |
| 2026-04-30 19:52 | 51.00516 | 4.46282 | 4007 ft | 227 kts | 278° |
| 2026-04-30 19:52 | 51.00531 | 4.43825 | 4018 ft | 222 kts | 256° |
| 2026-04-30 19:53 | 51.00288 | 4.41415 | 4014 ft | 222 kts | 252° |
| 2026-04-30 19:53 | 51.00008 | 4.39009 | 4005 ft | 221 kts | 252° |
| 2026-04-30 19:53 | 50.99720 | 4.36600 | 4011 ft | 221 kts | 253° |
| 2026-04-30 19:53 | 50.99427 | 4.34202 | 4014 ft | 222 kts | 252° |
| 2026-04-30 19:54 | 50.99130 | 4.31798 | 4010 ft | 222 kts | 252° |
| 2026-04-30 19:54 | 50.98756 | 4.29436 | 4008 ft | 217 kts | 239° |
| 2026-04-30 19:54 | 50.98081 | 4.27322 | 4016 ft | 214 kts | 233° |
| 2026-04-30 19:54 | 50.97342 | 4.25278 | 4015 ft | 214 kts | 233° |
| 2026-04-30 19:55 | 50.96588 | 4.23243 | 4023 ft | 213 kts | 233° |
| 2026-04-30 19:55 | 50.95839 | 4.21234 | 3849 ft | 210 kts | 232° |
| 2026-04-30 19:55 | 50.95095 | 4.19230 | 3597 ft | 211 kts | 232° |
| 2026-04-30 19:55 | 50.94357 | 4.17219 | 3347 ft | 211 kts | 232° |
| 2026-04-30 19:56 | 50.93621 | 4.15203 | 3099 ft | 211 kts | 230° |
| 2026-04-30 19:56 | 50.92600 | 4.13689 | 3007 ft | 194 kts | 194° |
| 2026-04-30 19:56 | 50.91322 | 4.13107 | 3014 ft | 192 kts | 184° |
| 2026-04-30 19:56 | 50.90000 | 4.12704 | 3015 ft | 192 kts | 183° |
| 2026-04-30 19:57 | 50.88689 | 4.12335 | 3012 ft | 191 kts | 182° |
| 2026-04-30 19:57 | 50.87380 | 4.11975 | 3014 ft | 191 kts | 182° |
| 2026-04-30 19:57 | 50.86080 | 4.11609 | 3015 ft | 186 kts | 182° |
| 2026-04-30 19:57 | 50.84875 | 4.11628 | 3010 ft | 166 kts | 154° |
| 2026-04-30 19:58 | 50.84073 | 4.12806 | 3013 ft | 161 kts | 120° |
| 2026-04-30 19:58 | 50.83622 | 4.14406 | 3015 ft | 159 kts | 114° |
| 2026-04-30 19:58 | 50.83228 | 4.16049 | 3013 ft | 159 kts | 113° |
| 2026-04-30 19:58 | 50.82851 | 4.17691 | 3009 ft | 160 kts | 112° |
| 2026-04-30 19:59 | 50.82476 | 4.19334 | 3008 ft | 160 kts | 110° |
| 2026-04-30 19:59 | 50.82565 | 4.21087 | 3011 ft | 173 kts | 69° |
| 2026-04-30 19:59 | 50.83723 | 4.24340 | 3023 ft | 159 kts | 71° |
| 2026-04-30 20:00 | 50.84187 | 4.25877 | 3001 ft | 153 kts | 73° |
| 2026-04-30 20:00 | 50.84636 | 4.27410 | 2745 ft | 152 kts | 74° |
| 2026-04-30 20:00 | 50.85072 | 4.28898 | 2492 ft | 144 kts | 73° |
| 2026-04-30 20:00 | 50.85480 | 4.30290 | 2279 ft | 135 kts | 74° |
| 2026-04-30 20:01 | 50.86212 | 4.32785 | 1940 ft | 119 kts | 75° |
| 2026-04-30 20:01 | 50.86547 | 4.33944 | 1782 ft | 117 kts | 73° |
| 2026-04-30 20:01 | 50.86889 | 4.35130 | 1664 ft | 121 kts | 72° |
| 2026-04-30 20:02 | 50.87568 | 4.37499 | 1285 ft | 117 kts | 73° |
| 2026-04-30 20:02 | 50.87913 | 4.38685 | 1112 ft | 120 kts | 72° |
| 2026-04-30 20:03 | 50.88582 | 4.41073 | 764 ft | 117 kts | 72° |
| 2026-04-30 20:03 | 50.88936 | 4.42267 | 607 ft | 119 kts | 69° |
| 2026-04-30 20:03 | 50.89292 | 4.43452 | 483 ft | 119 kts | 66° |
| 2026-04-30 20:03 | 50.89631 | 4.44642 | 320 ft | 116 kts | 68° |
| 2026-04-30 20:04 | 50.89962 | 4.45810 | 203 ft | 116 kts | 67° |
| 2026-04-30 20:04 | 50.90280 | 4.46914 | 129 ft | 100 kts | 66° |
| 2026-04-30 20:04 | 50.90498 | 4.47664 | 124 ft | 50 kts | 65° |
| 2026-04-30 20:05 | 50.90641 | 4.48345 | 119 ft | 14 kts | 124° |
| 2026-04-30 20:05 | 50.90583 | 4.48498 | 119 ft | 18 kts | 120° |
| 2026-04-30 20:05 | 50.90538 | 4.48707 | 117 ft | 12 kts | 66° |
| 2026-04-30 20:06 | 50.90578 | 4.48844 | 119 ft | 15 kts | 66° |
| 2026-04-30 20:06 | 50.90628 | 4.49018 | 121 ft | 19 kts | 65° |
| 2026-04-30 20:06 | 50.90642 | 4.49135 | 121 ft | 11 kts | 124° |
| 2026-04-30 20:06 | 50.90609 | 4.49162 | 123 ft | 5 kts | 154° |
| 2026-04-30 20:07 | 50.90577 | 4.49184 | 119 ft | 6 kts | 155° |
| 2026-04-30 20:07 | 50.90530 | 4.49218 | 122 ft | 9 kts | 155° |
| 2026-04-30 20:07 | 50.90386 | 4.49323 | 122 ft | 10 kts | 155° |
| 2026-04-30 20:08 | 50.90321 | 4.49390 | 122 ft | 13 kts | 142° |
| 2026-04-30 20:08 | 50.90233 | 4.49383 | 128 ft | 14 kts | 194° |
| 2026-04-30 20:08 | 50.90134 | 4.49345 | 130 ft | 15 kts | 194° |
| 2026-04-30 20:08 | 50.90025 | 4.49299 | 131 ft | 15 kts | 194° |
| 2026-04-30 20:09 | 50.89974 | 4.49227 | 134 ft | 11 kts | 257° |
| 2026-04-30 20:09 | 50.89946 | 4.49113 | 136 ft | 12 kts | 244° |
| 2026-04-30 20:09 | 50.89883 | 4.48896 | 136 ft | 12 kts | 245° |
| 2026-04-30 20:10 | 50.89876 | 4.48785 | 135 ft | 7 kts | 336° |
| 2026-04-30 20:10 | 50.89923 | 4.48752 | 132 ft | 4 kts | 335° |
| 2026-04-30 20:10 | 50.89940 | 4.48740 | 131 ft | 1 kts | 335° |
| 2026-04-30 20:11 | 50.89950 | 4.48733 | 131 ft | 1 kts | 335° |
| 2026-04-30 20:11 | 50.89955 | 4.48729 | 131 ft | 1 kts | 335° |
| 2026-04-30 20:11 | 50.89959 | 4.48726 | 131 ft | 0 kts | 335° |